createdAt,value
2023-05-08T00:04:16.041Z,13.10
2023-05-08T00:09:23.726Z,13.10
2023-05-08T00:14:30.442Z,13.10
2023-05-08T00:19:37.647Z,13.10
2023-05-08T00:24:44.578Z,13.10
2023-05-08T00:29:51.756Z,13.10
2023-05-08T00:34:58.868Z,13.10
2023-05-08T00:40:06.737Z,13.10
2023-05-08T00:45:13.647Z,13.10
2023-05-08T00:50:21.525Z,13.20
2023-05-08T00:55:28.749Z,13.00
2023-05-08T01:00:36.122Z,12.90
2023-05-08T01:05:43.842Z,12.80
2023-05-08T01:11:00.955Z,12.70
2023-05-08T01:16:27.425Z,12.50
2023-05-08T01:21:56.701Z,12.50
2023-05-08T01:27:44.343Z,12.40
2023-05-08T01:33:03.979Z,12.30
2023-05-08T01:38:20.966Z,12.10
2023-05-08T01:43:50.061Z,12.20
2023-05-08T01:49:09.958Z,12.30
2023-05-08T01:54:23.245Z,12.10
2023-05-08T01:59:31.918Z,12.00
2023-05-08T02:04:40.862Z,11.80
2023-05-08T02:09:48.676Z,11.80
2023-05-08T02:14:57.397Z,11.70
2023-05-08T02:20:08.045Z,11.70
2023-05-08T02:25:17.431Z,11.50
2023-05-08T02:30:27.387Z,11.40
2023-05-08T02:35:35.862Z,11.20
2023-05-08T02:40:46.913Z,11.40
2023-05-08T02:46:18.021Z,11.20
2023-05-08T02:51:29.334Z,11.00
2023-05-08T02:56:43.408Z,10.90
2023-05-08T03:01:57.729Z,10.80
2023-05-08T03:07:07.883Z,10.70
2023-05-08T03:12:22.245Z,10.40
2023-05-08T03:17:32.500Z,10.50
2023-05-08T03:22:40.760Z,10.20
2023-05-08T03:27:49.137Z,10.00
2023-05-08T03:32:58.852Z,10.10
2023-05-08T03:38:07.169Z,10.00
2023-05-08T03:43:14.309Z,10.10
2023-05-08T03:48:22.932Z,10.20
2023-05-08T03:53:31.175Z,10.30
2023-05-08T03:58:45.649Z,10.30
2023-05-08T04:03:59.915Z,10.40
2023-05-08T04:09:35.303Z,10.10
2023-05-08T04:14:46.626Z,10.10
2023-05-08T04:19:57.740Z,9.90
2023-05-08T04:25:08.291Z,9.80
2023-05-08T04:30:16.658Z,9.70
2023-05-08T04:35:24.306Z,10.00
2023-05-08T04:40:31.400Z,9.80
2023-05-08T04:45:38.266Z,10.00
2023-05-08T04:50:45.158Z,10.00
2023-05-08T04:55:52.180Z,10.00
2023-05-08T05:00:59.109Z,10.00
2023-05-08T05:06:06.115Z,9.80
2023-05-08T05:11:12.824Z,9.90
2023-05-08T05:16:20.236Z,9.90
2023-05-08T05:21:28.344Z,10.10
2023-05-08T05:26:36.854Z,9.80
2023-05-08T05:31:44.021Z,9.70
2023-05-08T05:36:51.413Z,9.60
2023-05-08T05:41:58.673Z,9.60
2023-05-08T05:47:17.527Z,9.80
2023-05-08T05:52:24.592Z,9.80
2023-05-08T05:57:31.875Z,9.80
2023-05-08T06:02:41.162Z,9.80
2023-05-08T06:07:48.254Z,9.80
2023-05-08T06:12:55.355Z,9.90
2023-05-08T06:18:02.563Z,9.90
2023-05-08T06:23:09.936Z,9.80
2023-05-08T06:28:16.884Z,9.80
2023-05-08T06:33:27.285Z,9.80
2023-05-08T06:38:34.320Z,10.00
2023-05-08T06:43:41.531Z,9.60
2023-05-08T06:48:48.532Z,9.60
2023-05-08T06:53:55.904Z,9.60
2023-05-08T06:59:15.548Z,9.60
2023-05-08T07:04:24.214Z,9.70
2023-05-08T07:09:31.681Z,9.70
2023-05-08T07:14:39.917Z,9.70
2023-05-08T07:19:48.671Z,9.70
2023-05-08T07:24:55.681Z,9.50
2023-05-08T07:30:04.664Z,9.70
2023-05-08T07:35:13.437Z,9.60
2023-05-08T07:40:20.872Z,9.60
2023-05-08T07:45:28.112Z,9.80
2023-05-08T07:50:56.892Z,9.80
2023-05-08T07:56:02.884Z,9.60
2023-05-08T08:01:10.003Z,9.60
2023-05-08T08:06:18.716Z,9.60
2023-05-08T08:11:25.912Z,9.60
2023-05-08T08:16:32.847Z,9.50
2023-05-08T08:21:44.742Z,9.70
2023-05-08T08:26:52.128Z,10.10
2023-05-08T08:31:59.592Z,9.90
2023-05-08T08:37:08.504Z,10.00
2023-05-08T08:42:16.285Z,9.80
2023-05-08T08:47:34.205Z,9.90
2023-05-08T08:53:03.946Z,9.90
2023-05-08T08:58:27.140Z,10.10
2023-05-08T09:03:34.797Z,10.00
2023-05-08T09:08:43.295Z,10.30
2023-05-08T09:13:52.141Z,10.10
2023-05-08T09:18:59.334Z,10.00
2023-05-08T09:24:07.967Z,10.10
2023-05-08T09:29:22.824Z,10.30
2023-05-08T09:34:33.656Z,10.40
2023-05-08T09:39:42.445Z,10.50
2023-05-08T09:44:58.134Z,9.90
2023-05-08T09:50:10.894Z,10.20
2023-05-08T09:55:18.082Z,10.20
2023-05-08T10:00:28.095Z,10.10
2023-05-08T10:05:59.049Z,10.20
2023-05-08T10:11:22.780Z,9.60
2023-05-08T10:16:32.262Z,9.90
2023-05-08T10:21:41.014Z,10.10
2023-05-08T10:27:17.853Z,10.10
2023-05-08T10:32:26.790Z,10.10
2023-05-08T10:37:36.416Z,10.10
2023-05-08T10:42:43.932Z,10.10
2023-05-08T10:48:19.319Z,10.20
2023-05-08T10:53:59.679Z,10.40
2023-05-08T10:59:07.732Z,10.30
2023-05-08T11:04:25.613Z,10.20
2023-05-08T11:09:46.136Z,10.20
2023-05-08T11:15:09.636Z,10.00
2023-05-08T11:20:16.613Z,10.00
2023-05-08T11:25:28.150Z,10.20
2023-05-08T11:30:42.181Z,10.00
2023-05-08T11:36:02.763Z,10.00
2023-05-08T11:41:23.943Z,10.10
2023-05-08T11:46:38.070Z,10.20
2023-05-08T11:51:47.152Z,10.50
2023-05-08T11:56:55.877Z,10.50
2023-05-08T12:02:09.123Z,10.20
2023-05-08T12:07:18.398Z,10.30
2023-05-08T12:12:25.241Z,10.10
2023-05-08T12:17:32.276Z,10.30
2023-05-08T12:22:39.849Z,10.50
2023-05-08T12:27:50.506Z,10.30
2023-05-08T12:32:58.628Z,10.20
2023-05-08T12:38:08.352Z,10.10
2023-05-08T12:43:16.484Z,10.40
2023-05-08T12:48:23.724Z,10.40
2023-05-08T12:53:33.371Z,10.50
2023-05-08T12:58:41.350Z,10.40
2023-05-08T13:04:01.038Z,10.50
2023-05-08T13:09:00.245Z,10.50
2023-05-08T13:14:07.319Z,10.60
2023-05-08T13:19:15.950Z,10.70
2023-05-08T13:24:23.099Z,10.70
2023-05-08T13:29:30.177Z,10.80
2023-05-08T13:34:41.496Z,10.90
2023-05-08T13:39:46.412Z,10.60
2023-05-08T13:44:53.211Z,10.60
2023-05-08T13:50:00.694Z,10.50
2023-05-08T13:55:09.969Z,10.50
2023-05-08T14:00:18.866Z,10.70
2023-05-08T14:05:26.005Z,10.60
2023-05-08T14:10:33.288Z,10.50
2023-05-08T14:15:40.809Z,10.50
2023-05-08T14:20:56.558Z,10.30
2023-05-08T14:25:57.075Z,10.50
2023-05-08T14:31:04.455Z,10.20
2023-05-08T14:36:12.161Z,10.40
2023-05-08T14:41:19.323Z,10.60
2023-05-08T14:46:26.468Z,10.80
2023-05-08T14:51:33.813Z,10.90
2023-05-08T14:56:47.252Z,10.90
2023-05-08T15:01:49.614Z,10.90
2023-05-08T15:06:56.437Z,11.00
2023-05-08T15:12:04.140Z,11.00
2023-05-08T15:17:13.002Z,10.90
2023-05-08T15:22:19.957Z,11.00
2023-05-08T15:27:26.779Z,11.10
2023-05-08T15:32:33.651Z,11.10
2023-05-08T15:37:41.270Z,11.10
2023-05-08T15:42:48.086Z,11.00
2023-05-08T15:47:55.927Z,11.20
2023-05-08T15:53:02.883Z,11.10
2023-05-08T15:58:09.733Z,11.10
2023-05-08T16:03:16.942Z,11.10
2023-05-08T16:08:25.027Z,11.20
2023-05-08T16:13:32.484Z,11.10
2023-05-08T16:18:39.368Z,11.10
2023-05-08T16:23:46.436Z,11.40
2023-05-08T16:28:53.235Z,11.30
2023-05-08T16:34:00.127Z,11.20
2023-05-08T16:39:07.255Z,11.10
2023-05-08T16:44:16.030Z,11.20
2023-05-08T16:49:22.903Z,11.30
2023-05-08T16:54:29.786Z,11.40
2023-05-08T16:59:37.093Z,11.50
2023-05-08T17:04:45.597Z,11.40
2023-05-08T17:09:55.861Z,11.30
2023-05-08T17:15:02.834Z,11.30
2023-05-08T17:20:11.861Z,11.30
2023-05-08T17:25:19.110Z,11.10
2023-05-08T17:30:26.653Z,11.10
2023-05-08T17:35:34.171Z,11.10
2023-05-08T17:40:41.126Z,11.10
2023-05-08T17:45:48.159Z,10.90
2023-05-08T17:50:55.472Z,10.90
2023-05-08T17:56:02.289Z,10.80
2023-05-08T18:01:09.447Z,10.70
2023-05-08T18:06:20.773Z,10.60
2023-05-08T18:11:28.975Z,10.70
2023-05-08T18:16:36.135Z,10.60
2023-05-08T18:21:43.211Z,10.50
2023-05-08T18:26:52.480Z,10.60
2023-05-08T18:31:59.366Z,10.50
2023-05-08T18:37:06.314Z,10.60
2023-05-08T18:42:14.958Z,10.40
2023-05-08T18:47:21.882Z,10.50
2023-05-08T18:52:28.976Z,10.40
2023-05-08T18:57:43.476Z,10.50
2023-05-08T19:02:55.565Z,10.40
2023-05-08T19:08:03.546Z,10.40
2023-05-08T19:13:10.338Z,10.50
2023-05-08T19:18:18.372Z,10.40
2023-05-08T19:23:25.141Z,10.20
2023-05-08T19:28:32.633Z,10.20
2023-05-08T19:33:39.560Z,10.10
2023-05-08T19:38:46.720Z,10.20
2023-05-08T19:43:53.635Z,10.30
2023-05-08T19:49:01.109Z,10.40
2023-05-08T19:54:08.711Z,10.30
2023-05-08T19:59:16.132Z,10.40
2023-05-08T20:04:24.520Z,10.40
2023-05-08T20:09:32.128Z,10.40
2023-05-08T20:14:39.094Z,10.50
2023-05-08T20:19:46.306Z,10.40
2023-05-08T20:24:53.261Z,10.30
2023-05-08T20:30:00.212Z,10.30
2023-05-08T20:35:07.902Z,10.30
2023-05-08T20:40:15.454Z,10.30
2023-05-08T20:45:22.512Z,10.40
2023-05-08T20:50:29.544Z,10.40
2023-05-08T20:55:36.575Z,10.20
2023-05-08T21:00:43.800Z,10.20
2023-05-08T21:05:52.646Z,10.10
2023-05-08T21:10:59.673Z,10.10
2023-05-08T21:16:08.786Z,10.00
2023-05-08T21:21:20.993Z,10.00
2023-05-08T21:26:28.035Z,9.90
2023-05-08T21:31:37.797Z,9.80
2023-05-08T21:36:45.355Z,9.90
2023-05-08T21:41:52.656Z,9.90
2023-05-08T21:46:59.815Z,9.90
2023-05-08T21:52:07.116Z,9.90
2023-05-08T21:57:15.581Z,9.90
2023-05-08T22:02:23.223Z,9.80
2023-05-08T22:07:30.272Z,9.80
2023-05-08T22:12:37.550Z,9.90
2023-05-08T22:17:48.211Z,9.80
2023-05-08T22:22:55.317Z,9.80
2023-05-08T22:28:04.142Z,9.70
2023-05-08T22:33:11.229Z,9.70
2023-05-08T22:38:18.157Z,9.70
2023-05-08T22:43:25.483Z,9.80
2023-05-08T22:48:33.473Z,9.80
2023-05-08T22:53:40.378Z,9.80
2023-05-08T22:58:47.234Z,9.90
2023-05-08T23:03:57.146Z,9.90
2023-05-08T23:09:04.776Z,10.00
2023-05-08T23:14:12.891Z,9.90
2023-05-08T23:19:20.081Z,9.90
2023-05-08T23:24:28.110Z,9.90
2023-05-08T23:29:34.930Z,9.90
2023-05-08T23:34:43.894Z,9.80
2023-05-08T23:39:51.106Z,9.80
2023-05-08T23:44:59.239Z,9.70
2023-05-08T23:50:08.542Z,9.70
2023-05-08T23:55:15.764Z,9.60
